Time;durP1;ratioP1;P1;durP2;ratioP2;P2;SDS_P1;SDS_P2;PMS_P1;PMS_P2;Temp;Humidity;BMP_temperature;BMP_pressure;BME280_temperature;BME280_humidity;BME280_pressure;Samples;Min_cycle;Max_cycle;Signal;HPM_P1;HPM_P2
2022/12/14 00:00:54;;;;;;;;;;;;;;;27.59;45.46;96715.26;608870;233;64985;-71
2022/12/14 00:03:22;;;;;;;;;;;;;;;27.59;45.22;96715.26;608865;233;64801;-71
2022/12/14 00:05:49;;;;;;;;;;;;;;;27.57;46.63;96722.87;608904;233;63896;-71
2022/12/14 00:08:17;;;;;;;;;;;;;;;27.57;46.17;96719.39;608826;233;64998;-71
2022/12/14 00:10:45;;;;;;;;;;;;;;;27.57;44.66;96725.58;608865;233;64689;-71
2022/12/14 00:13:16;;;;;;;;;;;;;;;27.57;45.91;96733.67;608857;233;62860;-72
2022/12/14 00:15:43;;;;;;;;;;;;;;;27.58;45.14;96734.45;608867;233;65110;-71
2022/12/14 00:18:11;;;;;;;;;;;;;;;27.56;45.35;96732.09;608827;233;65203;-71
2022/12/14 00:20:38;;;;;;;;;;;;;;;27.57;45.41;96732.88;608884;233;65002;-71
2022/12/14 00:23:06;;;;;;;;;;;;;;;27.54;46.19;96738.92;608848;233;67940;-71
2022/12/14 00:25:34;;;;;;;;;;;;;;;27.53;45.10;96734.62;608859;233;67074;-71
2022/12/14 00:28:02;;;;;;;;;;;;;;;27.52;46.03;96723.04;610015;232;62540;-72
2022/12/14 00:30:30;;;;;;;;;;;;;;;27.52;46.18;96719.55;610492;232;65013;-71
2022/12/14 00:32:57;;;;;;;;;;;;;;;27.50;46.38;96717.19;610545;232;64935;-71
2022/12/14 00:35:24;;;;;;;;;;;;;;;27.51;45.80;96717.98;610505;232;62904;-67
2022/12/14 00:37:52;;;;;;;;;;;;;;;27.48;45.38;96714.02;610497;232;66795;-67
2022/12/14 00:40:19;;;;;;;;;;;;;;;27.48;45.91;96713.23;610472;232;67176;-67
2022/12/14 00:42:47;;;;;;;;;;;;;;;27.47;46.42;96722.42;610455;232;65116;-67
2022/12/14 00:45:14;;;;;;;;;;;;;;;27.45;44.97;96712.75;610546;232;65357;-67
2022/12/14 00:47:42;;;;;;;;;;;;;;;27.45;45.39;96712.75;610444;232;64869;-71
2022/12/14 00:50:09;;;;;;;;;;;;;;;27.45;45.64;96714.66;610489;232;63040;-71
2022/12/14 00:52:37;;;;;;;;;;;;;;;27.44;45.45;96708.44;610490;232;64977;-71
2022/12/14 00:55:05;;;;;;;;;;;;;;;27.44;45.79;96702.26;610484;232;67077;-71
2022/12/14 00:57:32;;;;;;;;;;;;;;;27.42;46.38;96697.20;610548;232;65086;-71
2022/12/14 00:59:59;;;;;;;;;;;;;;;27.41;46.12;96698.30;610498;232;65068;-71
2022/12/14 01:02:27;;;;;;;;;;;;;;;27.41;46.15;96697.50;610455;232;64978;-71
2022/12/14 01:04:54;;;;;;;;;;;;;;;27.40;45.70;96691.32;610478;232;63051;-71
2022/12/14 01:07:22;;;;;;;;;;;;;;;27.38;45.51;96690.05;610482;232;67189;-71
2022/12/14 01:09:49;;;;;;;;;;;;;;;27.38;46.56;96693.54;610495;232;66989;-71
2022/12/14 01:12:17;;;;;;;;;;;;;;;27.38;46.04;96693.54;610511;232;64865;-71
2022/12/14 01:14:45;;;;;;;;;;;;;;;27.37;46.06;96696.58;610482;232;67221;-71
2022/12/14 01:17:12;;;;;;;;;;;;;;;27.37;45.15;96696.58;610466;232;67057;-71
2022/12/14 01:19:40;;;;;;;;;;;;;;;27.36;46.06;96705.77;610484;232;65141;-71
2022/12/14 01:22:09;;;;;;;;;;;;;;;27.35;44.43;96693.40;610491;232;66989;-71
2022/12/14 01:24:36;;;;;;;;;;;;;;;27.33;45.57;96691.01;610523;232;66865;-71
2022/12/14 01:27:04;;;;;;;;;;;;;;;27.32;47.02;96689.43;609938;232;65011;-71
2022/12/14 01:29:31;;;;;;;;;;;;;;;27.31;45.54;96687.86;608818;233;64986;-71
2022/12/14 01:31:58;;;;;;;;;;;;;;;27.30;45.32;96691.65;608798;233;65177;-67
2022/12/14 01:34:26;;;;;;;;;;;;;;;27.29;45.81;96683.89;608852;233;65027;-66
2022/12/14 01:36:53;;;;;;;;;;;;;;;27.29;45.87;96687.38;608915;233;67396;-66
2022/12/14 01:39:21;;;;;;;;;;;;;;;27.28;45.74;96682.28;608833;233;64951;-67
2022/12/14 01:41:51;;;;;;;;;;;;;;;27.28;45.65;96682.28;608814;233;65015;-65
2022/12/14 01:44:20;;;;;;;;;;;;;;;27.27;45.84;96678.80;608822;233;67227;-70
2022/12/14 01:46:58;;;;;;;;;;;;;;;27.26;45.48;96684.53;608864;233;67066;-70
2022/12/14 01:49:30;;;;;;;;;;;;;;;27.23;46.96;96681.36;608881;233;65052;-69
2022/12/14 01:52:02;;;;;;;;;;;;;;;27.22;45.71;96677.05;608881;233;67003;-69
2022/12/14 01:54:31;;;;;;;;;;;;;;;27.21;45.13;96674.70;608686;232;67231;-69
2022/12/14 01:56:59;;;;;;;;;;;;;;;27.22;46.71;96676.27;608827;233;65114;-69
2022/12/14 01:59:28;;;;;;;;;;;;;;;27.20;45.58;96670.39;608832;233;65249;-69
2022/12/14 02:01:56;;;;;;;;;;;;;;;27.17;45.75;96671.85;608833;233;66893;-69
2022/12/14 02:04:24;;;;;;;;;;;;;;;27.17;45.58;96677.25;608875;233;62945;-69
2022/12/14 02:06:53;;;;;;;;;;;;;;;27.17;45.76;96681.83;608828;233;65033;-69
2022/12/14 02:09:22;;;;;;;;;;;;;;;27.15;47.02;96674.03;608851;233;67174;-69
2022/12/14 02:11:51;;;;;;;;;;;;;;;27.14;46.58;96667.04;608824;233;62902;-69
2022/12/14 02:14:18;;;;;;;;;;;;;;;27.13;45.97;96665.47;608776;232;67250;-69
2022/12/14 02:16:47;;;;;;;;;;;;;;;27.13;48.23;96672.77;608839;233;67070;-69
2022/12/14 02:19:15;;;;;;;;;;;;;;;27.11;47.21;96673.08;608870;233;65038;-69
2022/12/14 02:22:00;;;;;;;;;;;;;;;27.10;47.74;96666.11;608800;233;67264;-69
2022/12/14 02:24:45;;;;;;;;;;;;;;;27.09;45.51;96669.11;608829;233;64820;-70
2022/12/14 02:27:31;;;;;;;;;;;;;;;27.08;46.71;96668.33;608783;232;64904;-70
2022/12/14 02:30:00;;;;;;;;;;;;;;;27.07;46.67;96666.75;608831;233;67133;-70
2022/12/14 02:32:29;;;;;;;;;;;;;;;27.06;46.29;96653.56;608847;233;67062;-70
2022/12/14 02:34:58;;;;;;;;;;;;;;;27.04;47.11;96650.39;608801;232;65073;-65
2022/12/14 02:37:27;;;;;;;;;;;;;;;27.03;45.73;96641.52;608510;232;64943;-66
2022/12/14 02:40:10;;;;;;;;;;;;;;;27.01;45.88;96638.36;599403;232;64686;-65
2022/12/14 02:42:39;;;;;;;;;;;;;;;27.00;46.44;96628.67;608836;233;63026;-66
2022/12/14 02:45:14;;;;;;;;;;;;;;;27.01;47.38;96630.28;608701;232;67245;-65
2022/12/14 02:47:47;;;;;;;;;;;;;;;26.99;47.02;96638.67;607966;233;67273;-65
2022/12/14 02:50:16;;;;;;;;;;;;;;;26.99;47.12;96627.09;608654;232;63036;-66
2022/12/14 02:52:51;;;;;;;;;;;;;;;26.98;46.61;96628.19;608565;232;67119;-65
2022/12/14 02:55:27;;;;;;;;;;;;;;;26.97;47.07;96623.92;608816;233;64859;-65
2022/12/14 02:58:05;;;;;;;;;;;;;;;26.95;47.20;96632.31;608523;232;62937;-66
2022/12/14 03:00:34;;;;;;;;;;;;;;;26.95;45.94;96636.92;608518;232;64541;-65
2022/12/14 03:03:02;;;;;;;;;;;;;;;26.93;46.83;96639.17;608810;233;67035;-70
2022/12/14 03:05:29;;;;;;;;;;;;;;;26.91;47.82;96635.98;608867;233;62426;-70
2022/12/14 03:08:07;;;;;;;;;;;;;;;26.90;46.71;96635.20;608945;233;64753;-70
2022/12/14 03:10:42;;;;;;;;;;;;;;;26.91;47.95;96631.38;608596;232;64956;-70
2022/12/14 03:13:11;;;;;;;;;;;;;;;26.89;48.45;96625.51;608729;233;62931;-70
2022/12/14 03:15:40;;;;;;;;;;;;;;;26.87;47.19;96629.63;608810;233;67300;-70
2022/12/14 03:18:09;;;;;;;;;;;;;;;26.87;45.80;96624.24;608839;233;67049;-71
2022/12/14 03:20:37;;;;;;;;;;;;;;;26.88;48.15;96620.45;608923;233;63340;-70
2022/12/14 03:23:09;;;;;;;;;;;;;;;26.86;47.71;96628.06;608880;233;64896;-70
2022/12/14 03:25:48;;;;;;;;;;;;;;;26.84;47.81;96627.58;608887;233;64861;-66
2022/12/14 03:28:25;;;;;;;;;;;;;;;26.83;46.94;96623.30;608497;232;64874;-65
2022/12/14 03:30:54;;;;;;;;;;;;;;;26.82;48.35;96611.73;608827;233;66768;-65
2022/12/14 03:33:23;;;;;;;;;;;;;;;26.81;47.20;96601.26;608877;233;66942;-66
2022/12/14 03:35:58;;;;;;;;;;;;;;;26.79;48.73;96607.77;608911;233;65007;-65
2022/12/14 03:38:30;;;;;;;;;;;;;;;26.78;48.52;96606.17;608854;232;66820;-65
2022/12/14 03:40:59;;;;;;;;;;;;;;;26.75;49.19;96606.81;608808;232;64673;-70
2022/12/14 03:43:28;;;;;;;;;;;;;;;26.75;47.80;96612.20;608848;233;62902;-70
2022/12/14 03:46:00;;;;;;;;;;;;;;;26.73;47.02;96609.02;608796;232;67120;-70
2022/12/14 03:48:38;;;;;;;;;;;;;;;26.73;49.15;96619.02;608779;232;66786;-70
2022/12/14 03:51:07;;;;;;;;;;;;;;;26.72;46.81;96618.23;608902;233;65114;-66
2022/12/14 03:53:39;;;;;;;;;;;;;;;26.70;49.10;96617.75;604385;233;66974;-66
2022/12/14 03:56:12;;;;;;;;;;;;;;;26.71;49.34;96616.66;608716;232;66807;-66
2022/12/14 03:58:47;;;;;;;;;;;;;;;26.69;50.11;96607.30;608566;232;65040;-66
2022/12/14 04:01:20;;;;;;;;;;;;;;;26.67;49.10;96613.00;608799;232;64883;-66
2022/12/14 04:03:58;;;;;;;;;;;;;;;26.65;49.16;96607.13;608038;233;67397;-66
2022/12/14 04:06:27;;;;;;;;;;;;;;;26.66;48.66;96608.73;608868;233;65038;-66
2022/12/14 04:08:59;;;;;;;;;;;;;;;26.64;49.91;96610.94;608907;233;67473;-66
2022/12/14 04:19:48;;;;;;;;;;;;;;;26.60;50.27;96614.58;608872;233;64859;-65
2022/12/14 04:22:20;;;;;;;;;;;;;;;26.57;49.73;96605.22;608856;233;63142;-65
2022/12/14 04:27:48;;;;;;;;;;;;;;;26.57;49.96;96599.83;609795;232;64955;-65
2022/12/14 04:30:16;;;;;;;;;;;;;;;26.55;48.53;96604.77;610536;232;65273;-65
2022/12/14 04:32:54;;;;;;;;;;;;;;;26.53;48.30;96610.46;610430;232;67457;-66
2022/12/14 04:35:35;;;;;;;;;;;;;;;26.53;49.07;96604.28;610315;232;67077;-65
2022/12/14 04:38:04;;;;;;;;;;;;;;;26.50;48.50;96605.68;610503;232;65288;-65
2022/12/14 04:40:50;;;;;;;;;;;;;;;26.50;49.43;96602.20;610461;232;65072;-65
2022/12/14 04:43:19;;;;;;;;;;;;;;;26.49;49.50;96605.98;610479;232;66868;-65
2022/12/14 04:45:47;;;;;;;;;;;;;;;26.47;47.59;96611.70;610523;232;65329;-65
2022/12/14 04:48:20;;;;;;;;;;;;;;;26.46;49.37;96610.09;610433;232;67222;-65
2022/12/14 04:50:49;;;;;;;;;;;;;;;26.45;48.97;96608.53;610493;232;65011;-65
2022/12/14 04:53:17;;;;;;;;;;;;;;;26.44;51.08;96606.95;610442;232;62994;-70
2022/12/14 04:55:49;;;;;;;;;;;;;;;26.42;49.66;96603.77;610400;232;67025;-65
2022/12/14 04:58:21;;;;;;;;;;;;;;;26.42;48.73;96614.55;610507;232;67067;-65
2022/12/14 05:00:50;;;;;;;;;;;;;;;26.41;50.13;96621.06;610548;232;65034;-65
2022/12/14 05:03:19;;;;;;;;;;;;;;;26.41;50.18;96622.94;609313;232;67255;-65
2022/12/14 05:06:05;;;;;;;;;;;;;;;26.40;48.85;96618.67;610439;232;69254;-65
2022/12/14 05:08:34;;;;;;;;;;;;;;;26.38;50.27;96618.97;610471;232;65104;-65
2022/12/14 05:11:03;;;;;;;;;;;;;;;26.37;50.32;96625.48;610195;232;67221;-66
2022/12/14 05:13:32;;;;;;;;;;;;;;;26.37;52.77;96628.17;610373;232;66782;-65
2022/12/14 05:16:00;;;;;;;;;;;;;;;26.35;49.27;96619.60;610297;232;65094;-65
2022/12/14 05:18:27;;;;;;;;;;;;;;;26.33;50.77;96617.24;610455;232;67266;-65
2022/12/14 05:20:55;;;;;;;;;;;;;;;26.34;51.15;96612.64;610459;232;67365;-65
2022/12/14 05:23:22;;;;;;;;;;;;;;;26.33;49.57;96609.16;610473;232;65134;-66
2022/12/14 05:25:49;;;;;;;;;;;;;;;26.33;49.91;96605.68;610493;232;67360;-66
2022/12/14 05:28:17;;;;;;;;;;;;;;;26.33;50.66;96606.47;609136;232;64852;-65
2022/12/14 05:30:44;;;;;;;;;;;;;;;26.32;48.84;96607.55;608854;233;62778;-65
2022/12/14 05:33:19;;;;;;;;;;;;;;;26.33;48.33;96616.45;608796;233;67219;-66
2022/12/14 05:35:46;;;;;;;;;;;;;;;26.34;48.64;96623.41;608846;233;65030;-66
2022/12/14 05:38:14;;;;;;;;;;;;;;;26.34;49.01;96613.43;608878;233;65076;-66
2022/12/14 05:40:41;;;;;;;;;;;;;;;26.34;47.98;96613.43;608884;233;66881;-66
2022/12/14 05:43:11;;;;;;;;;;;;;;;26.37;47.88;96608.53;608753;233;67026;-66
2022/12/14 05:45:38;;;;;;;;;;;;;;;26.37;47.43;96619.30;608783;233;62916;-66
2022/12/14 05:48:06;;;;;;;;;;;;;;;26.38;48.46;96618.19;608818;233;67347;-66
2022/12/14 05:50:35;;;;;;;;;;;;;;;26.39;46.53;96614.40;608892;233;67156;-65
2022/12/14 05:53:02;;;;;;;;;;;;;;;26.39;47.49;96612.48;608882;233;63194;-66
2022/12/14 05:55:30;;;;;;;;;;;;;;;26.40;49.06;96607.89;608854;233;67246;-69
2022/12/14 05:57:57;;;;;;;;;;;;;;;26.41;48.98;96617.55;608845;233;66894;-70
2022/12/14 06:00:26;;;;;;;;;;;;;;;26.41;48.10;96618.36;608835;233;65113;-70
2022/12/14 06:02:54;;;;;;;;;;;;;;;26.42;48.26;96625.33;608848;233;65120;-70
2022/12/14 06:05:22;;;;;;;;;;;;;;;26.43;48.27;96615.34;608889;233;66980;-70
2022/12/14 06:07:49;;;;;;;;;;;;;;;26.43;47.91;96623.42;608853;233;63003;-70
2022/12/14 06:10:17;;;;;;;;;;;;;;;26.44;47.98;96615.03;608812;233;67302;-70
2022/12/14 06:12:44;;;;;;;;;;;;;;;26.44;48.66;96620.42;608790;233;66970;-72
2022/12/14 06:15:12;;;;;;;;;;;;;;;26.44;49.05;96623.12;608848;233;64259;-72
2022/12/14 06:17:43;;;;;;;;;;;;;;;26.44;47.79;96630.41;608864;233;64953;-70
2022/12/14 06:20:11;;;;;;;;;;;;;;;26.44;46.99;96623.12;608826;233;67817;-71
2022/12/14 06:22:39;;;;;;;;;;;;;;;26.46;49.40;96626.27;608865;233;65188;-70
2022/12/14 06:25:07;;;;;;;;;;;;;;;26.46;48.37;96630.88;608811;233;67111;-70
2022/12/14 06:27:34;;;;;;;;;;;;;;;26.47;48.70;96621.70;609677;232;66960;-70
2022/12/14 06:30:02;;;;;;;;;;;;;;;26.48;48.65;96617.87;610532;232;65034;-71
2022/12/14 06:32:30;;;;;;;;;;;;;;;26.48;47.66;96612.49;610497;232;67343;-71
2022/12/14 06:34:57;;;;;;;;;;;;;;;26.50;48.00;96615.67;610501;232;67360;-70
2022/12/14 06:37:25;;;;;;;;;;;;;;;26.50;48.08;96624.54;610522;232;65091;-71
2022/12/14 06:39:52;;;;;;;;;;;;;;;26.52;47.32;96640.44;610436;232;67208;-70
2022/12/14 06:42:20;;;;;;;;;;;;;;;26.52;47.79;96633.14;610522;232;67110;-70
2022/12/14 06:44:47;;;;;;;;;;;;;;;26.53;47.53;96634.72;610472;232;65149;-70
2022/12/14 06:47:15;;;;;;;;;;;;;;;26.55;47.06;96639.80;610459;232;67248;-70
2022/12/14 06:49:42;;;;;;;;;;;;;;;26.56;47.96;96633.30;610406;232;64943;-70
2022/12/14 06:52:10;;;;;;;;;;;;;;;26.56;48.25;96627.91;610457;232;65012;-71
2022/12/14 06:54:37;;;;;;;;;;;;;;;26.58;47.93;96623.00;610415;232;66919;-71
2022/12/14 06:57:04;;;;;;;;;;;;;;;26.60;46.86;96626.17;610517;232;67065;-70
2022/12/14 06:59:32;;;;;;;;;;;;;;;26.63;47.74;96632.80;610012;232;65067;-69
2022/12/14 07:01:59;;;;;;;;;;;;;;;26.66;48.39;96624.90;610478;232;65249;-69
2022/12/14 07:04:27;;;;;;;;;;;;;;;26.69;48.65;96620.78;610293;232;64892;-69
2022/12/14 07:06:54;;;;;;;;;;;;;;;26.71;45.34;96622.05;610322;232;62920;-69
2022/12/14 07:09:22;;;;;;;;;;;;;;;26.75;47.79;96628.38;610510;232;65017;-70
2022/12/14 07:11:50;;;;;;;;;;;;;;;26.76;48.18;96629.98;610463;232;66986;-69
2022/12/14 07:14:21;;;;;;;;;;;;;;;26.80;43.56;96630.13;610496;232;45012;-71
2022/12/14 07:16:51;;;;;;;;;;;;;;;26.85;47.77;96638.06;609679;232;45570;-72
2022/12/14 07:19:22;;;;;;;;;;;;;;;26.86;42.26;96633.45;609783;232;48224;-71
2022/12/14 07:21:54;;;;;;;;;;;;;;;26.89;45.85;96632.81;609598;232;46448;-71
2022/12/14 07:24:23;;;;;;;;;;;;;;;26.92;45.36;96640.26;609276;232;67179;-71
2022/12/14 07:26:56;;;;;;;;;;;;;;;26.93;47.94;96634.56;607582;232;67014;-71
2022/12/14 07:29:25;;;;;;;;;;;;;;;26.94;47.72;96641.53;605477;232;65089;-69
2022/12/14 07:31:55;;;;;;;;;;;;;;;26.96;47.56;96633.13;608371;232;67083;-71
2022/12/14 07:34:23;;;;;;;;;;;;;;;26.97;46.72;96640.89;606771;232;66890;-70
2022/12/14 07:36:54;;;;;;;;;;;;;;;26.99;47.15;96643.28;606956;232;46272;-71
2022/12/14 07:39:31;;;;;;;;;;;;;;;27.00;46.16;96640.25;605351;232;48298;-69
2022/12/14 07:42:00;;;;;;;;;;;;;;;27.03;49.20;96649.61;608693;232;66531;-70
2022/12/14 07:44:29;;;;;;;;;;;;;;;27.04;44.63;96650.39;610438;232;65043;-70
2022/12/14 07:46:56;;;;;;;;;;;;;;;27.06;44.42;96645.48;605371;232;66748;-69
2022/12/14 07:49:26;;;;;;;;;;;;;;;27.05;46.25;96647.39;602185;235;48118;-69
2022/12/14 07:52:00;;;;;;;;;;;;;;;27.05;47.25;96647.39;602241;235;44813;-70
2022/12/14 07:54:35;;;;;;;;;;;;;;;27.05;47.54;96652.78;602150;235;46217;-68
2022/12/14 07:57:08;;;;;;;;;;;;;;;27.06;46.71;96665.14;602149;235;66717;-71
2022/12/14 07:59:40;;;;;;;;;;;;;;;27.08;47.58;96662.14;602272;234;46315;-68
2022/12/14 08:02:09;;;;;;;;;;;;;;;27.08;47.59;96673.72;605715;232;66589;-69
2022/12/14 08:04:38;;;;;;;;;;;;;;;27.09;47.68;96669.92;602767;235;66843;-69
2022/12/14 08:07:10;;;;;;;;;;;;;;;27.10;46.82;96668.80;602753;235;43771;-67
2022/12/14 08:09:41;;;;;;;;;;;;;;;27.11;48.80;96673.08;602666;235;46597;-71
2022/12/14 08:12:08;;;;;;;;;;;;;;;27.11;48.52;96678.47;602722;235;67005;-69
2022/12/14 08:14:38;;;;;;;;;;;;;;;27.12;46.84;96680.08;599006;235;46202;-68
2022/12/14 08:17:05;;;;;;;;;;;;;;;27.14;46.94;96680.52;596244;235;66917;-68
2022/12/14 08:19:33;;;;;;;;;;;;;;;27.14;47.07;96682.44;602536;235;63894;-69
2022/12/14 08:22:00;;;;;;;;;;;;;;;27.15;44.91;96692.13;602669;235;65229;-68
2022/12/14 08:24:28;;;;;;;;;;;;;;;27.13;47.34;96692.44;608179;231;67188;-69
2022/12/14 08:26:55;;;;;;;;;;;;;;;27.13;46.12;96697.83;609982;231;64937;-69
2022/12/14 08:29:23;;;;;;;;;;;;;;;27.12;46.48;96690.86;608459;233;65233;-69
2022/12/14 08:31:50;;;;;;;;;;;;;;;27.13;43.94;96695.13;604185;231;64997;-69
2022/12/14 08:34:21;;;;;;;;;;;;;;;27.14;44.34;96701.31;602973;235;64618;-69
2022/12/14 08:36:47;;;;;;;;;;;;;;;27.14;44.72;96693.22;601878;233;64892;-70
2022/12/14 08:39:14;;;;;;;;;;;;;;;27.18;46.64;96699.61;603154;232;67194;-70
2022/12/14 08:41:43;;;;;;;;;;;;;;;27.18;47.28;96695.00;607098;232;67006;-72
2022/12/14 08:44:12;;;;;;;;;;;;;;;27.18;47.05;96689.61;603653;232;62775;-71
2022/12/14 08:46:41;;;;;;;;;;;;;;;27.19;46.69;96691.19;601479;236;67246;-70
2022/12/14 08:49:12;;;;;;;;;;;;;;;27.20;46.29;96690.09;601379;236;64682;-71
2022/12/14 08:51:41;;;;;;;;;;;;;;;27.21;47.28;96688.18;603305;231;64886;-72
2022/12/14 08:54:09;;;;;;;;;;;;;;;27.21;46.85;96690.88;602699;235;68009;-71
2022/12/14 08:56:37;;;;;;;;;;;;;;;27.20;47.02;96690.09;602966;235;66707;-70
2022/12/14 08:59:04;;;;;;;;;;;;;;;27.21;48.51;96694.36;602910;235;63004;-73
2022/12/14 09:01:32;;;;;;;;;;;;;;;27.21;46.48;96691.67;602918;235;67256;-70
2022/12/14 09:04:04;;;;;;;;;;;;;;;27.23;45.47;96699.45;602924;235;66320;-71
2022/12/14 09:06:32;;;;;;;;;;;;;;;27.24;46.29;96706.42;602901;235;65057;-66
2022/12/14 09:09:00;;;;;;;;;;;;;;;27.25;46.50;96707.21;602898;235;67124;-68
2022/12/14 09:11:28;;;;;;;;;;;;;;;27.25;46.69;96709.91;602911;235;67127;-67
2022/12/14 09:13:55;;;;;;;;;;;;;;;27.25;47.20;96713.39;602946;235;62764;-71
2022/12/14 09:16:29;;;;;;;;;;;;;;;27.24;47.25;96703.73;602952;235;67073;-66
2022/12/14 09:18:54;;;;;;;;;;;;;;;27.25;47.28;96699.91;602570;235;67076;-65
2022/12/14 09:21:22;;;;;;;;;;;;;;;27.25;46.57;96694.51;602971;235;64953;-67
2022/12/14 09:23:51;;;;;;;;;;;;;;;27.25;47.06;96683.72;602948;235;66912;-68
2022/12/14 09:26:22;;;;;;;;;;;;;;;27.27;46.86;96691.51;602805;235;65030;-67
2022/12/14 09:28:51;;;;;;;;;;;;;;;27.26;46.58;96681.84;599413;236;65057;-70
2022/12/14 09:31:20;;;;;;;;;;;;;;;27.26;47.21;96666.44;599461;236;69071;-70
2022/12/14 09:33:48;;;;;;;;;;;;;;;27.26;47.23;96662.95;599415;236;67397;-69
2022/12/14 09:36:16;;;;;;;;;;;;;;;27.27;45.85;96664.53;599404;236;65098;-69
2022/12/14 09:38:44;;;;;;;;;;;;;;;27.26;44.64;96668.34;599276;236;64862;-69
2022/12/14 09:41:29;;;;;;;;;;;;;;;27.27;45.30;96669.92;599635;234;64945;-71
2022/12/14 09:44:04;;;;;;;;;;;;;;;27.26;45.88;96666.44;601997;235;62767;-70
2022/12/14 09:46:36;;;;;;;;;;;;;;;27.26;45.31;96665.66;602025;235;67006;-71
2022/12/14 09:49:06;;;;;;;;;;;;;;;27.26;44.45;96665.66;601868;235;64931;-71
2022/12/14 09:51:35;;;;;;;;;;;;;;;27.27;45.77;96669.92;601947;235;65249;-71
2022/12/14 09:54:04;;;;;;;;;;;;;;;27.27;45.26;96654.52;601940;235;67077;-71
2022/12/14 09:56:32;;;;;;;;;;;;;;;27.27;45.25;96656.44;602040;235;64767;-69
2022/12/14 09:59:01;;;;;;;;;;;;;;;27.28;46.37;96652.61;602033;235;65030;-69
2022/12/14 10:01:31;;;;;;;;;;;;;;;27.28;45.19;96652.61;602019;235;67254;-73
2022/12/14 10:04:12;;;;;;;;;;;;;;;27.28;47.00;96648.00;601904;235;67000;-70
2022/12/14 10:06:47;;;;;;;;;;;;;;;27.30;46.55;96642.30;601944;235;62425;-70
2022/12/14 10:09:35;;;;;;;;;;;;;;;27.28;44.68;96642.61;602007;235;67303;-73
2022/12/14 10:12:04;;;;;;;;;;;;;;;27.28;44.80;96633.72;602069;235;66772;-70
2022/12/14 10:14:51;;;;;;;;;;;;;;;27.31;43.81;96633.08;601993;235;64827;-69
2022/12/14 10:17:29;;;;;;;;;;;;;;;27.30;44.64;96626.11;601907;235;64702;-71
2022/12/14 10:19:58;;;;;;;;;;;;;;;27.34;45.00;96617.06;602014;235;67317;-69
2022/12/14 10:22:27;;;;;;;;;;;;;;;27.34;43.43;96608.97;602015;235;63086;-73
2022/12/14 10:24:56;;;;;;;;;;;;;;;27.35;42.54;96607.84;601890;233;64870;-70
2022/12/14 10:27:25;;;;;;;;;;;;;;;27.36;43.72;96601.31;605569;232;64820;-70
2022/12/14 10:30:06;;;;;;;;;;;;;;;27.36;45.72;96600.53;610156;232;65146;-70
2022/12/14 10:32:35;;;;;;;;;;;;;;;27.36;45.38;96611.33;610150;232;64640;-69
2022/12/14 10:35:13;;;;;;;;;;;;;;;27.36;44.75;96603.23;610078;232;65214;-69
2022/12/14 10:37:48;;;;;;;;;;;;;;;27.38;43.96;96611.80;610138;232;62929;-69
2022/12/14 10:40:30;;;;;;;;;;;;;;;27.38;46.15;96591.00;610128;232;65546;-69
2022/12/14 10:43:15;;;;;;;;;;;;;;;27.38;45.20;96585.61;610112;232;67198;-70
2022/12/14 10:45:47;;;;;;;;;;;;;;;27.39;43.64;96578.30;610071;232;65296;-67
2022/12/14 10:48:25;;;;;;;;;;;;;;;27.39;44.97;96570.20;610082;232;67477;-67
2022/12/14 10:51:03;;;;;;;;;;;;;;;27.38;45.35;96560.53;610138;232;65024;-69
2022/12/14 10:53:32;;;;;;;;;;;;;;;27.38;45.60;96557.84;610103;232;65264;-66
2022/12/14 10:56:01;;;;;;;;;;;;;;;27.38;45.14;96561.32;610133;232;65120;-70
2022/12/14 10:58:29;;;;;;;;;;;;;;;27.39;46.43;96554.02;610074;232;67065;-70
2022/12/14 11:00:56;;;;;;;;;;;;;;;27.39;45.51;96554.02;610143;232;65080;-71
2022/12/14 11:03:24;;;;;;;;;;;;;;;27.38;45.16;96552.44;610187;232;67407;-71
2022/12/14 11:05:59;;;;;;;;;;;;;;;27.38;44.75;96558.63;610084;232;67107;-69
2022/12/14 11:08:40;;;;;;;;;;;;;;;27.39;44.77;96562.11;609926;232;64882;-68
2022/12/14 11:11:18;;;;;;;;;;;;;;;27.38;45.36;96553.23;610097;232;67151;-70
2022/12/14 11:13:50;;;;;;;;;;;;;;;27.38;44.98;96550.53;610099;232;67090;-70
2022/12/14 11:16:19;;;;;;;;;;;;;;;27.39;45.83;96548.62;610114;232;65158;-69
2022/12/14 11:18:48;;;;;;;;;;;;;;;27.38;45.94;96547.05;610057;232;67413;-69
2022/12/14 11:21:15;;;;;;;;;;;;;;;27.38;45.21;96549.74;609670;232;67050;-68
2022/12/14 11:23:44;;;;;;;;;;;;;;;27.39;45.49;96559.41;610127;232;62906;-69
2022/12/14 11:26:14;;;;;;;;;;;;;;;27.38;45.23;96553.23;610139;232;67262;-68
2022/12/14 11:28:52;;;;;;;;;;;;;;;27.39;44.38;96545.92;610109;232;66716;-69
2022/12/14 11:31:24;;;;;;;;;;;;;;;27.40;45.52;96534.03;610114;232;62892;-69
2022/12/14 11:33:53;;;;;;;;;;;;;;;27.39;45.36;96533.24;610157;232;67248;-70
2022/12/14 11:36:40;;;;;;;;;;;;;;;27.39;44.84;96530.55;609829;232;67566;-68
2022/12/14 11:39:15;;;;;;;;;;;;;;;27.39;45.53;96537.83;610095;232;63078;-69
2022/12/14 11:41:45;;;;;;;;;;;;;;;27.43;43.95;96544.17;610071;232;67043;-69
2022/12/14 11:44:17;;;;;;;;;;;;;;;27.43;46.02;96522.58;610197;232;67171;-69
2022/12/14 11:46:46;;;;;;;;;;;;;;;27.42;43.91;96519.09;610171;232;65019;-69
2022/12/14 11:49:27;;;;;;;;;;;;;;;27.43;45.06;96520.67;609765;232;67378;-71
2022/12/14 11:51:56;;;;;;;;;;;;;;;27.45;43.26;96521.14;610187;232;66774;-70
2022/12/14 11:54:24;;;;;;;;;;;;;;;27.47;44.76;96507.31;610132;232;65070;-69
2022/12/14 11:56:53;;;;;;;;;;;;;;;27.51;44.36;96529.06;610139;232;64458;-69
2022/12/14 11:59:20;;;;;;;;;;;;;;;27.51;46.57;96516.35;610135;232;65350;-71
2022/12/14 12:01:48;;;;;;;;;;;;;;;27.53;45.04;96513.31;610107;232;62775;-72
2022/12/14 12:04:16;;;;;;;;;;;;;;;27.54;44.78;96518.39;610096;232;65073;-69
2022/12/14 12:06:45;;;;;;;;;;;;;;;27.56;45.96;96526.97;610079;232;66912;-69
2022/12/14 12:09:28;;;;;;;;;;;;;;;27.57;46.04;96523.14;610094;232;65068;-71
2022/12/14 12:11:56;;;;;;;;;;;;;;;27.58;45.10;96511.24;610120;232;67725;-71
2022/12/14 12:14:32;;;;;;;;;;;;;;;27.60;45.66;96508.98;610220;232;66829;-73
2022/12/14 12:16:59;;;;;;;;;;;;;;;27.59;44.98;96503.94;609737;232;65069;-66
2022/12/14 12:19:29;;;;;;;;;;;;;;;27.60;44.13;96513.60;610711;232;67202;-66
2022/12/14 12:21:59;;;;;;;;;;;;;;;27.61;45.45;96499.80;611874;232;65475;-66
2022/12/14 12:24:30;;;;;;;;;;;;;;;27.61;45.04;96499.80;611779;229;65046;-66
2022/12/14 12:27:00;;;;;;;;;;;;;;;27.63;46.26;96504.84;611286;232;67230;-66
2022/12/14 12:29:34;;;;;;;;;;;;;;;27.63;44.55;96502.15;610062;232;66994;-66
2022/12/14 12:32:04;;;;;;;;;;;;;;;27.63;44.42;96505.63;609933;232;65175;-66
2022/12/14 12:34:33;;;;;;;;;;;;;;;27.62;44.77;96509.46;609979;232;67247;-66
2022/12/14 12:37:02;;;;;;;;;;;;;;;27.64;45.06;96506.45;609775;232;64610;-66
2022/12/14 12:39:32;;;;;;;;;;;;;;;27.65;44.54;96502.62;609879;232;65059;-66
2022/12/14 12:42:10;;;;;;;;;;;;;;;27.66;44.74;96513.10;610061;232;65226;-66
2022/12/14 12:44:46;;;;;;;;;;;;;;;27.66;44.56;96521.20;609813;232;66808;-66
2022/12/14 12:47:23;;;;;;;;;;;;;;;27.66;43.05;96521.20;609857;232;62381;-65
2022/12/14 12:49:51;;;;;;;;;;;;;;;27.67;45.27;96514.67;609890;232;67236;-67
2022/12/14 12:52:23;;;;;;;;;;;;;;;27.68;45.73;96523.56;609870;232;67423;-66
2022/12/14 12:54:52;;;;;;;;;;;;;;;27.66;44.88;96521.20;609731;232;65218;-68
2022/12/14 12:57:21;;;;;;;;;;;;;;;27.67;45.11;96532.78;609795;232;64520;-67
2022/12/14 12:59:50;;;;;;;;;;;;;;;27.63;44.52;96531.84;609939;232;67051;-67
2022/12/14 13:02:19;;;;;;;;;;;;;;;27.60;44.94;96533.28;604811;232;65112;-67
2022/12/14 13:04:48;;;;;;;;;;;;;;;27.58;44.76;96540.12;609984;232;68034;-67
2022/12/14 13:07:33;;;;;;;;;;;;;;;27.56;45.62;96537.77;609858;232;67007;-67
2022/12/14 13:10:02;;;;;;;;;;;;;;;27.54;45.51;96541.90;610022;232;65113;-70
2022/12/14 13:12:32;;;;;;;;;;;;;;;27.58;38.91;96540.12;609503;232;66792;-67
2022/12/14 13:15:01;;;;;;;;;;;;;;;27.62;42.36;96546.47;608042;232;64938;-67